Time;durP1;ratioP1;P1;durP2;ratioP2;P2;SDS_P1;SDS_P2;PMS_P1;PMS_P2;Temp;Humidity;BMP_temperature;BMP_pressure;BME280_temperature;BME280_humidity;BME280_pressure;Samples;Min_cycle;Max_cycle;Signal;HPM_P1;HPM_P2
2022/05/18 00:00:11;;;;;;;4.50;4.10;;;;;;;;;;5036487;28;20189;-54
2022/05/18 00:02:41;;;;;;;3.93;3.73;;;;;;;;;;5061714;28;20204;-54
2022/05/18 00:05:10;;;;;;;3.73;3.53;;;;;;;;;;5035489;28;20588;-54
2022/05/18 00:07:37;;;;;;;4.27;3.87;;;;;;;;;;5031633;28;20209;-54
2022/05/18 00:10:03;;;;;;;4.47;4.10;;;;;;;;;;5028815;28;20498;-54
2022/05/18 00:12:29;;;;;;;4.20;3.83;;;;;;;;;;5031354;28;20592;-54
2022/05/18 00:14:56;;;;;;;3.70;3.50;;;;;;;;;;5031312;28;20196;-54
2022/05/18 00:17:22;;;;;;;3.97;3.67;;;;;;;;;;5031360;28;20267;-54
2022/05/18 00:19:48;;;;;;;3.57;3.30;;;;;;;;;;5053716;28;20193;-54
2022/05/18 00:22:14;;;;;;;4.17;3.87;;;;;;;;;;5053071;28;20192;-54
2022/05/18 00:24:40;;;;;;;4.30;3.90;;;;;;;;;;5032667;28;20200;-54
2022/05/18 00:27:07;;;;;;;3.97;3.63;;;;;;;;;;5045766;28;20267;-53
2022/05/18 00:29:36;;;;;;;3.60;3.40;;;;;;;;;;5051460;28;20268;-54
2022/05/18 00:32:02;;;;;;;4.60;4.17;;;;;;;;;;5021068;28;20184;-54
2022/05/18 00:34:28;;;;;;;4.70;4.07;;;;;;;;;;5051136;28;20717;-55
2022/05/18 00:36:54;;;;;;;4.87;4.00;;;;;;;;;;5046825;28;20272;-54
2022/05/18 00:39:21;;;;;;;4.13;3.80;;;;;;;;;;5033810;28;20186;-55
2022/05/18 00:41:48;;;;;;;3.77;3.40;;;;;;;;;;5056618;28;20212;-54
2022/05/18 00:44:14;;;;;;;3.97;3.57;;;;;;;;;;5030058;28;20206;-54
2022/05/18 00:46:40;;;;;;;3.87;3.57;;;;;;;;;;5050061;28;20184;-54
2022/05/18 00:49:07;;;;;;;4.23;3.93;;;;;;;;;;5056080;28;20211;-54
2022/05/18 00:51:53;;;;;;;4.57;4.17;;;;;;;;;;5033075;28;20254;-54
2022/05/18 00:54:27;;;;;;;4.27;3.87;;;;;;;;;;5047813;28;20497;-54
2022/05/18 00:56:56;;;;;;;4.53;3.97;;;;;;;;;;5035219;28;20625;-54
2022/05/18 00:59:25;;;;;;;4.43;3.97;;;;;;;;;;5055293;28;20823;-54
2022/05/18 01:01:52;;;;;;;3.93;3.57;;;;;;;;;;5047043;28;20181;-54
2022/05/18 01:04:18;;;;;;;4.07;3.70;;;;;;;;;;5045296;28;20209;-54
2022/05/18 01:06:46;;;;;;;4.27;3.93;;;;;;;;;;5048258;28;20209;-54
2022/05/18 01:09:29;;;;;;;3.77;3.57;;;;;;;;;;5044894;28;20188;-54
2022/05/18 01:11:55;;;;;;;4.93;3.33;;;;;;;;;;5046744;28;20650;-54
2022/05/18 01:14:23;;;;;;;4.30;3.90;;;;;;;;;;5045925;28;20187;-54
2022/05/18 01:16:50;;;;;;;3.77;3.47;;;;;;;;;;5048748;28;20182;-55
2022/05/18 01:19:37;;;;;;;4.33;3.70;;;;;;;;;;5048472;28;20651;-53
2022/05/18 01:22:14;;;;;;;4.20;3.90;;;;;;;;;;5047053;28;20180;-54
2022/05/18 01:24:47;;;;;;;4.07;3.77;;;;;;;;;;5045613;28;20667;-54
2022/05/18 01:27:13;;;;;;;4.03;3.63;;;;;;;;;;5048780;28;20226;-54
2022/05/18 01:29:39;;;;;;;3.83;3.50;;;;;;;;;;5048693;28;20168;-54
2022/05/18 01:32:06;;;;;;;4.10;3.80;;;;;;;;;;5048532;28;20776;-54
2022/05/18 01:34:33;;;;;;;4.07;3.63;;;;;;;;;;5024831;28;20193;-54
2022/05/18 01:36:59;;;;;;;3.97;3.57;;;;;;;;;;5049905;28;20182;-54
2022/05/18 01:39:34;;;;;;;3.73;3.43;;;;;;;;;;5045041;28;20231;-54
2022/05/18 01:42:06;;;;;;;4.70;3.80;;;;;;;;;;5054382;28;20214;-54
2022/05/18 01:44:37;;;;;;;4.07;3.73;;;;;;;;;;5028906;28;20209;-54
2022/05/18 01:47:03;;;;;;;5.00;4.60;;;;;;;;;;5046592;28;20192;-53
2022/05/18 01:49:29;;;;;;;4.30;3.63;;;;;;;;;;5044092;28;20187;-54
2022/05/18 01:51:56;;;;;;;4.43;4.03;;;;;;;;;;5046346;28;20204;-54
2022/05/18 01:54:22;;;;;;;3.50;3.20;;;;;;;;;;5046632;28;20177;-53
2022/05/18 01:56:48;;;;;;;4.40;4.00;;;;;;;;;;5029193;28;20668;-53
2022/05/18 01:59:15;;;;;;;4.10;3.80;;;;;;;;;;5042837;28;20248;-54
2022/05/18 02:01:41;;;;;;;4.50;4.10;;;;;;;;;;5050813;28;20250;-55
2022/05/18 02:04:07;;;;;;;3.50;3.30;;;;;;;;;;5048660;28;20666;-53
2022/05/18 02:06:34;;;;;;;6.00;4.10;;;;;;;;;;5047502;28;20263;-54
2022/05/18 02:09:01;;;;;;;4.40;4.03;;;;;;;;;;5027497;28;20181;-54
2022/05/18 02:11:27;;;;;;;4.57;3.67;;;;;;;;;;5028469;28;20186;-54
2022/05/18 02:13:53;;;;;;;4.10;3.80;;;;;;;;;;5047980;28;20296;-54
2022/05/18 02:16:20;;;;;;;4.97;3.90;;;;;;;;;;5049896;28;20284;-54
2022/05/18 02:18:46;;;;;;;3.77;3.47;;;;;;;;;;5046868;28;20211;-54
2022/05/18 02:21:12;;;;;;;3.53;3.33;;;;;;;;;;5048461;28;20651;-54
2022/05/18 02:23:39;;;;;;;5.70;3.83;;;;;;;;;;5055616;28;20716;-53
2022/05/18 02:26:09;;;;;;;4.00;3.70;;;;;;;;;;5050851;28;20247;-54
2022/05/18 02:28:35;;;;;;;4.40;3.97;;;;;;;;;;5050612;28;20679;-54
2022/05/18 02:31:01;;;;;;;4.00;3.57;;;;;;;;;;5052447;28;20185;-54
2022/05/18 02:33:27;;;;;;;4.13;3.73;;;;;;;;;;5049044;28;20525;-54
2022/05/18 02:35:53;;;;;;;5.00;4.60;;;;;;;;;;5049870;28;20185;-55
2022/05/18 02:38:20;;;;;;;4.13;3.83;;;;;;;;;;5051644;28;20188;-54
2022/05/18 02:40:46;;;;;;;3.90;3.60;;;;;;;;;;5034249;28;20215;-55
2022/05/18 02:43:12;;;;;;;5.20;4.33;;;;;;;;;;5047951;28;20342;-54
2022/05/18 02:45:38;;;;;;;5.10;4.57;;;;;;;;;;5053696;28;20645;-54
2022/05/18 02:48:05;;;;;;;5.50;3.87;;;;;;;;;;5021999;28;20187;-54
2022/05/18 02:50:33;;;;;;;9.07;4.00;;;;;;;;;;5049835;28;20230;-54
2022/05/18 02:52:59;;;;;;;5.30;4.10;;;;;;;;;;5037630;28;20641;-54
2022/05/18 02:58:10;;;;;;;4.67;4.30;;;;;;;;;;5049475;28;20232;-54
2022/05/18 03:00:36;;;;;;;3.80;3.57;;;;;;;;;;5051103;28;20189;-54
2022/05/18 03:03:02;;;;;;;4.80;4.40;;;;;;;;;;5051588;28;20204;-54
2022/05/18 03:05:29;;;;;;;4.37;4.00;;;;;;;;;;5051827;28;21188;-54
2022/05/18 03:07:58;;;;;;;4.87;4.47;;;;;;;;;;5048663;28;20275;-54
2022/05/18 03:10:24;;;;;;;4.57;4.17;;;;;;;;;;5029362;28;20189;-54
2022/05/18 03:12:51;;;;;;;4.20;3.90;;;;;;;;;;5051023;28;20212;-54
2022/05/18 03:15:17;;;;;;;10.33;9.83;;;;;;;;;;5047702;28;20188;-54
2022/05/18 03:17:43;;;;;;;31.70;30.20;;;;;;;;;;5049611;28;20468;-55
2022/05/18 03:23:33;;;;;;;9.70;9.10;;;;;;;;;;5029800;28;20221;-57
2022/05/18 03:25:40;;;;;;;4.10;3.80;;;;;;;;;;5048314;28;20233;-54
2022/05/18 03:28:07;;;;;;;4.47;4.17;;;;;;;;;;5047064;28;20337;-53
2022/05/18 03:30:33;;;;;;;4.73;4.30;;;;;;;;;;5047501;28;20617;-53
2022/05/18 03:32:59;;;;;;;3.97;3.67;;;;;;;;;;5031929;28;20197;-54
2022/05/18 03:35:25;;;;;;;4.37;4.07;;;;;;;;;;5048073;28;20210;-54
2022/05/18 03:37:51;;;;;;;4.20;3.90;;;;;;;;;;5046408;28;20181;-54
2022/05/18 03:40:17;;;;;;;11.07;10.47;;;;;;;;;;5049689;28;20184;-54
2022/05/18 03:42:44;;;;;;;4.27;3.90;;;;;;;;;;5050576;28;20624;-54
2022/05/18 03:45:10;;;;;;;4.50;4.10;;;;;;;;;;5047895;28;21525;-53
2022/05/18 03:47:36;;;;;;;3.90;3.70;;;;;;;;;;5048385;28;20892;-54
2022/05/18 03:50:03;;;;;;;5.80;5.20;;;;;;;;;;5048210;28;20230;-54
2022/05/18 03:52:31;;;;;;;4.30;3.90;;;;;;;;;;5048972;28;20658;-54
2022/05/18 03:54:57;;;;;;;4.07;3.77;;;;;;;;;;5048273;28;20655;-54
2022/05/18 03:57:24;;;;;;;4.10;3.80;;;;;;;;;;5038332;28;20188;-54
2022/05/18 03:59:50;;;;;;;4.20;3.80;;;;;;;;;;5046403;28;20632;-54
2022/05/18 04:02:16;;;;;;;11.40;10.70;;;;;;;;;;5019768;28;20264;-53
2022/05/18 04:04:42;;;;;;;3.90;3.63;;;;;;;;;;5044828;28;20212;-54
2022/05/18 04:07:08;;;;;;;8.23;7.73;;;;;;;;;;5049722;28;20219;-54
2022/05/18 04:09:34;;;;;;;4.40;3.73;;;;;;;;;;5053362;28;20540;-54
2022/05/18 04:12:01;;;;;;;4.47;4.17;;;;;;;;;;5047588;28;20289;-53
2022/05/18 04:14:28;;;;;;;4.20;3.90;;;;;;;;;;5048238;28;20200;-54
2022/05/18 04:16:54;;;;;;;4.63;4.17;;;;;;;;;;5027691;28;20188;-54
2022/05/18 04:19:23;;;;;;;4.20;3.90;;;;;;;;;;5053505;28;20184;-54
2022/05/18 04:21:49;;;;;;;4.13;3.73;;;;;;;;;;5031472;28;20195;-54
2022/05/18 04:24:15;;;;;;;4.50;4.10;;;;;;;;;;5050782;28;20189;-54
2022/05/18 04:26:41;;;;;;;4.10;3.80;;;;;;;;;;5045085;28;20228;-54
2022/05/18 04:29:07;;;;;;;6.07;5.67;;;;;;;;;;5048661;28;20361;-53
2022/05/18 04:31:33;;;;;;;3.97;3.67;;;;;;;;;;5045351;28;20302;-54
2022/05/18 04:33:59;;;;;;;4.47;4.07;;;;;;;;;;5043147;28;20177;-54
2022/05/18 04:36:25;;;;;;;3.97;3.67;;;;;;;;;;5049875;28;20180;-54
2022/05/18 04:38:52;;;;;;;4.33;4.03;;;;;;;;;;5044938;28;20620;-55
2022/05/18 04:41:18;;;;;;;4.47;3.93;;;;;;;;;;5031076;28;20254;-54
2022/05/18 04:43:44;;;;;;;5.30;4.90;;;;;;;;;;5046253;28;20182;-53
2022/05/18 04:46:10;;;;;;;10.17;9.53;;;;;;;;;;5047299;28;20197;-55
2022/05/18 04:48:36;;;;;;;4.90;4.40;;;;;;;;;;5047655;28;20208;-54
2022/05/18 04:51:05;;;;;;;3.90;3.50;;;;;;;;;;5047657;28;20590;-54
2022/05/18 04:53:32;;;;;;;5.13;4.73;;;;;;;;;;5034311;28;20252;-55
2022/05/18 04:56:00;;;;;;;4.00;3.70;;;;;;;;;;5050372;28;20264;-53
2022/05/18 04:58:27;;;;;;;6.00;3.87;;;;;;;;;;5052036;28;20178;-54
2022/05/18 05:00:57;;;;;;;10.00;9.50;;;;;;;;;;5047703;28;20189;-54
2022/05/18 05:03:24;;;;;;;4.23;3.67;;;;;;;;;;5046945;28;20597;-54
2022/05/18 05:05:50;;;;;;;3.97;3.67;;;;;;;;;;5061575;28;20587;-53
2022/05/18 05:08:16;;;;;;;3.77;3.57;;;;;;;;;;5055653;28;20182;-54
2022/05/18 05:10:42;;;;;;;4.03;3.60;;;;;;;;;;5052799;28;20318;-54
2022/05/18 05:13:08;;;;;;;4.47;4.07;;;;;;;;;;5053798;28;20191;-54
2022/05/18 05:15:34;;;;;;;3.90;3.60;;;;;;;;;;5046238;28;20238;-53
2022/05/18 05:18:00;;;;;;;3.87;3.60;;;;;;;;;;5060813;28;20923;-54
2022/05/18 05:20:27;;;;;;;4.10;3.63;;;;;;;;;;5040060;28;20263;-54
2022/05/18 05:22:53;;;;;;;4.73;4.20;;;;;;;;;;5031988;28;20230;-54
2022/05/18 05:25:19;;;;;;;4.20;3.90;;;;;;;;;;5035488;28;20237;-54
2022/05/18 05:27:46;;;;;;;4.23;3.87;;;;;;;;;;5030012;28;20266;-53
2022/05/18 05:30:12;;;;;;;5.97;3.90;;;;;;;;;;5046766;28;20501;-54
2022/05/18 05:32:39;;;;;;;5.20;4.80;;;;;;;;;;5046568;28;20499;-54
2022/05/18 05:35:06;;;;;;;5.40;4.25;;;;;;;;;;5050035;28;20425;-53
2022/05/18 05:37:32;;;;;;;4.97;4.50;;;;;;;;;;5037337;28;20185;-54
2022/05/18 05:39:58;;;;;;;7.03;4.00;;;;;;;;;;5046939;28;20186;-53
2022/05/18 05:42:24;;;;;;;4.60;4.30;;;;;;;;;;5056009;28;20318;-54
2022/05/18 05:44:51;;;;;;;4.03;3.73;;;;;;;;;;5044776;28;20698;-54
2022/05/18 05:47:17;;;;;;;4.40;4.00;;;;;;;;;;5052940;28;20292;-52
2022/05/18 05:49:44;;;;;;;3.87;3.13;;;;;;;;;;5050083;28;20239;-54
2022/05/18 05:52:10;;;;;;;4.83;4.53;;;;;;;;;;5045423;28;20541;-54
2022/05/18 05:54:37;;;;;;;4.77;4.37;;;;;;;;;;5044370;28;20170;-54
2022/05/18 05:57:04;;;;;;;4.73;4.23;;;;;;;;;;5044645;28;20243;-54
2022/05/18 05:59:34;;;;;;;3.97;3.67;;;;;;;;;;5055312;28;20193;-54
2022/05/18 06:02:05;;;;;;;5.13;4.80;;;;;;;;;;5062307;28;20213;-54
2022/05/18 06:04:32;;;;;;;4.50;4.10;;;;;;;;;;5032730;28;20206;-54
2022/05/18 06:06:58;;;;;;;4.47;4.00;;;;;;;;;;5033845;28;20515;-54
2022/05/18 06:09:25;;;;;;;3.93;3.63;;;;;;;;;;5046395;28;20262;-54
2022/05/18 06:11:51;;;;;;;3.70;3.40;;;;;;;;;;5046233;28;20181;-54
2022/05/18 06:14:18;;;;;;;4.73;4.33;;;;;;;;;;5027996;28;20176;-54
2022/05/18 06:16:46;;;;;;;5.77;3.47;;;;;;;;;;5027284;28;20185;-54
2022/05/18 06:19:13;;;;;;;3.83;3.40;;;;;;;;;;5043965;28;20179;-54
2022/05/18 06:21:39;;;;;;;4.17;3.77;;;;;;;;;;5035174;28;20188;-54
2022/05/18 06:24:06;;;;;;;4.30;3.90;;;;;;;;;;5034060;28;20283;-54
2022/05/18 06:26:32;;;;;;;3.87;3.47;;;;;;;;;;5065710;28;20233;-54
2022/05/18 06:28:58;;;;;;;3.77;3.47;;;;;;;;;;5046510;28;20188;-54
2022/05/18 06:31:24;;;;;;;3.77;3.40;;;;;;;;;;5055929;28;20399;-54
2022/05/18 06:33:51;;;;;;;4.63;3.90;;;;;;;;;;5056752;28;20373;-55
2022/05/18 06:36:20;;;;;;;4.17;3.77;;;;;;;;;;5061572;28;20427;-54
2022/05/18 06:38:46;;;;;;;4.57;4.27;;;;;;;;;;5028484;28;20542;-55
2022/05/18 06:41:21;;;;;;;3.97;3.67;;;;;;;;;;5046824;28;20312;-54
2022/05/18 06:43:48;;;;;;;4.33;3.93;;;;;;;;;;5046116;28;20168;-54
2022/05/18 06:46:14;;;;;;;3.80;3.50;;;;;;;;;;5046622;28;20192;-54
2022/05/18 06:48:41;;;;;;;4.57;4.17;;;;;;;;;;5048230;28;20202;-56
2022/05/18 06:51:10;;;;;;;4.87;3.57;;;;;;;;;;5047207;28;20617;-54
2022/05/18 06:53:38;;;;;;;7.73;4.87;;;;;;;;;;5037607;28;20563;-56
2022/05/18 06:56:04;;;;;;;4.13;3.77;;;;;;;;;;5048974;28;20316;-55
2022/05/18 06:58:31;;;;;;;4.37;4.07;;;;;;;;;;5049427;28;20190;-56
2022/05/18 07:00:57;;;;;;;4.57;4.10;;;;;;;;;;5032627;28;20605;-56
2022/05/18 07:03:23;;;;;;;4.10;3.80;;;;;;;;;;5047134;28;20199;-57
2022/05/18 07:05:49;;;;;;;4.53;4.00;;;;;;;;;;5052324;28;20712;-54
2022/05/18 07:08:16;;;;;;;3.97;3.67;;;;;;;;;;5035025;28;20542;-54
2022/05/18 07:10:42;;;;;;;4.73;4.23;;;;;;;;;;5026174;28;20184;-54
2022/05/18 07:13:08;;;;;;;4.90;4.50;;;;;;;;;;5017418;28;20232;-53
2022/05/18 07:15:34;;;;;;;3.67;3.30;;;;;;;;;;5050393;28;20194;-54
2022/05/18 07:18:00;;;;;;;4.57;4.17;;;;;;;;;;5054535;28;20167;-54
2022/05/18 07:20:27;;;;;;;4.40;4.07;;;;;;;;;;5052845;28;20243;-54
2022/05/18 07:22:53;;;;;;;4.53;4.13;;;;;;;;;;5062765;28;20173;-54
2022/05/18 07:25:19;;;;;;;4.80;4.40;;;;;;;;;;5048815;28;20209;-54
2022/05/18 07:27:46;;;;;;;4.43;3.77;;;;;;;;;;5069437;28;20212;-53
2022/05/18 07:30:13;;;;;;;8.07;4.30;;;;;;;;;;5054889;28;20210;-54
2022/05/18 07:32:39;;;;;;;4.70;3.20;;;;;;;;;;5060702;28;20597;-53
2022/05/18 07:35:05;;;;;;;4.50;4.10;;;;;;;;;;5034913;28;20204;-54
2022/05/18 07:37:31;;;;;;;4.30;3.73;;;;;;;;;;5049912;28;20185;-54
2022/05/18 07:39:57;;;;;;;4.83;4.00;;;;;;;;;;5060904;28;20181;-54
2022/05/18 07:42:24;;;;;;;5.93;4.13;;;;;;;;;;5052778;28;20284;-53
2022/05/18 07:44:50;;;;;;;5.37;3.87;;;;;;;;;;5051346;28;20656;-54
2022/05/18 07:47:16;;;;;;;4.23;3.83;;;;;;;;;;5060821;28;20215;-54
2022/05/18 07:49:43;;;;;;;4.10;3.70;;;;;;;;;;5062727;28;20197;-54
2022/05/18 07:52:09;;;;;;;4.10;3.73;;;;;;;;;;5061766;28;20169;-54
2022/05/18 07:54:38;;;;;;;4.70;3.53;;;;;;;;;;5068167;28;20184;-54
2022/05/18 07:57:09;;;;;;;4.17;3.80;;;;;;;;;;5050821;28;20184;-54
2022/05/18 07:59:35;;;;;;;3.87;3.57;;;;;;;;;;5063972;28;20182;-54
2022/05/18 08:02:01;;;;;;;4.60;3.50;;;;;;;;;;5063922;28;20638;-54
2022/05/18 08:04:27;;;;;;;3.70;3.40;;;;;;;;;;5067638;28;20619;-54
2022/05/18 08:06:53;;;;;;;5.20;3.93;;;;;;;;;;5055572;28;20677;-54
2022/05/18 08:09:22;;;;;;;3.87;3.57;;;;;;;;;;5058684;28;20632;-54
2022/05/18 08:17:19;;;;;;;4.47;3.97;;;;;;;;;;5061343;28;20200;-54
2022/05/18 08:19:46;;;;;;;5.67;3.53;;;;;;;;;;5029255;28;20615;-55
2022/05/18 08:22:12;;;;;;;4.07;3.63;;;;;;;;;;5066974;28;20204;-55
2022/05/18 08:24:38;;;;;;;4.10;3.67;;;;;;;;;;5049911;28;20225;-55
2022/05/18 08:27:06;;;;;;;4.20;3.53;;;;;;;;;;5068018;28;20228;-54
2022/05/18 08:29:32;;;;;;;3.63;3.33;;;;;;;;;;5055047;28;20240;-55
2022/05/18 08:32:00;;;;;;;4.27;3.97;;;;;;;;;;5036519;28;20186;-55
2022/05/18 08:34:26;;;;;;;3.90;3.60;;;;;;;;;;5035252;28;20184;-54
2022/05/18 08:36:54;;;;;;;3.63;3.33;;;;;;;;;;5061975;28;20168;-55
2022/05/18 08:39:21;;;;;;;4.10;3.80;;;;;;;;;;5029638;28;20226;-56
2022/05/18 08:41:49;;;;;;;4.17;3.77;;;;;;;;;;5032829;28;20198;-56
2022/05/18 08:44:24;;;;;;;3.93;3.10;;;;;;;;;;5044967;28;20220;-55
2022/05/18 08:46:50;;;;;;;6.13;4.40;;;;;;;;;;5048674;28;20182;-55
2022/05/18 08:49:23;;;;;;;4.20;3.87;;;;;;;;;;5056570;28;20206;-56
2022/05/18 08:51:58;;;;;;;4.43;4.03;;;;;;;;;;5058374;28;20241;-55
2022/05/18 08:54:30;;;;;;;4.07;3.73;;;;;;;;;;5063693;28;20605;-55
2022/05/18 08:56:58;;;;;;;4.20;3.80;;;;;;;;;;5066117;28;20253;-55
2022/05/18 08:59:30;;;;;;;4.17;3.87;;;;;;;;;;5064404;28;20266;-55
2022/05/18 09:01:58;;;;;;;3.90;3.60;;;;;;;;;;5062065;28;20635;-55
2022/05/18 09:04:45;;;;;;;4.77;3.83;;;;;;;;;;5032418;28;20200;-56
2022/05/18 09:07:13;;;;;;;4.17;3.80;;;;;;;;;;5042107;28;20252;-54
2022/05/18 09:12:29;;;;;;;4.17;3.80;;;;;;;;;;5043803;28;20578;-55
2022/05/18 09:14:56;;;;;;;4.50;4.10;;;;;;;;;;5059975;28;20617;-54
2022/05/18 09:17:48;;;;;;;3.80;3.50;;;;;;;;;;5064552;28;20541;-55
2022/05/18 09:20:16;;;;;;;5.03;3.57;;;;;;;;;;5031370;28;20183;-55
2022/05/18 09:23:00;;;;;;;4.67;3.93;;;;;;;;;;5052723;28;20179;-56
2022/05/18 09:25:45;;;;;;;4.77;3.50;;;;;;;;;;5037599;28;20650;-56
2022/05/18 09:28:11;;;;;;;3.30;3.10;;;;;;;;;;5066823;28;20196;-55
2022/05/18 09:30:38;;;;;;;3.80;3.50;;;;;;;;;;5048365;28;20665;-56
2022/05/18 09:33:22;;;;;;;4.03;3.60;;;;;;;;;;5067698;28;20236;-55
2022/05/18 09:36:05;;;;;;;3.93;3.63;;;;;;;;;;5046148;28;20298;-56
2022/05/18 09:38:34;;;;;;;4.90;3.97;;;;;;;;;;5048092;28;20178;-56
2022/05/18 09:41:01;;;;;;;5.77;4.23;;;;;;;;;;5047571;28;20546;-56
2022/05/18 09:43:33;;;;;;;4.33;3.87;;;;;;;;;;5013902;28;20243;-56
2022/05/18 09:45:59;;;;;;;4.77;3.40;;;;;;;;;;5067058;28;20212;-56
2022/05/18 09:48:34;;;;;;;4.03;3.63;;;;;;;;;;5041045;28;20223;-56
2022/05/18 09:51:01;;;;;;;4.00;3.60;;;;;;;;;;5023679;28;20172;-55
2022/05/18 09:53:27;;;;;;;7.13;3.97;;;;;;;;;;5033354;28;20627;-55
2022/05/18 09:55:53;;;;;;;4.20;3.80;;;;;;;;;;5034470;28;20169;-55
2022/05/18 09:58:23;;;;;;;3.93;3.63;;;;;;;;;;5049484;28;20165;-56
2022/05/18 10:00:49;;;;;;;7.50;4.40;;;;;;;;;;5056127;28;20195;-56
2022/05/18 10:09:13;;;;;;;5.37;4.37;;;;;;;;;;4972276;28;20232;-56
2022/05/18 10:11:39;;;;;;;6.87;4.50;;;;;;;;;;5024549;28;20217;-56
2022/05/18 10:14:24;;;;;;;5.73;3.80;;;;;;;;;;5046441;28;20170;-56
2022/05/18 10:17:03;;;;;;;4.30;3.90;;;;;;;;;;5036048;28;20689;-56
2022/05/18 10:19:34;;;;;;;7.50;4.17;;;;;;;;;;5038794;28;20704;-55
2022/05/18 10:22:02;;;;;;;7.57;4.50;;;;;;;;;;5033719;28;20175;-56
2022/05/18 10:24:49;;;;;;;4.83;4.33;;;;;;;;;;5034101;28;20646;-56
2022/05/18 10:27:22;;;;;;;5.60;5.20;;;;;;;;;;4997928;28;20266;-56
2022/05/18 10:29:52;;;;;;;5.13;4.20;;;;;;;;;;5050663;28;20180;-56
2022/05/18 10:32:27;;;;;;;4.60;4.20;;;;;;;;;;5058475;28;20174;-56
2022/05/18 10:34:54;;;;;;;4.90;4.23;;;;;;;;;;5033499;28;20269;-55
2022/05/18 10:37:43;;;;;;;4.83;4.37;;;;;;;;;;5043133;28;20188;-55
2022/05/18 10:40:11;;;;;;;4.23;3.93;;;;;;;;;;5039352;28;20213;-56
2022/05/18 10:42:48;;;;;;;4.03;3.73;;;;;;;;;;5048418;28;20298;-55
2022/05/18 10:45:23;;;;;;;4.23;3.93;;;;;;;;;;5061116;28;20332;-56
2022/05/18 10:47:50;;;;;;;4.78;3.83;;;;;;;;;;5060171;28;20435;-56
2022/05/18 10:50:23;;;;;;;4.23;3.93;;;;;;;;;;5033971;28;20227;-56
2022/05/18 10:52:50;;;;;;;5.17;4.50;;;;;;;;;;5055322;28;20169;-56
2022/05/18 10:55:18;;;;;;;5.03;4.50;;;;;;;;;;5051245;28;20275;-56
2022/05/18 10:57:57;;;;;;;4.53;4.23;;;;;;;;;;5061937;28;20551;-56
2022/05/18 11:00:26;;;;;;;4.77;4.37;;;;;;;;;;5054580;28;20165;-56
2022/05/18 11:02:53;;;;;;;4.40;4.07;;;;;;;;;;5059053;28;20168;-56
2022/05/18 11:05:22;;;;;;;4.43;4.00;;;;;;;;;;5049229;28;20195;-56
2022/05/18 11:07:49;;;;;;;4.50;3.90;;;;;;;;;;5064655;28;20236;-56
2022/05/18 11:10:16;;;;;;;4.70;4.30;;;;;;;;;;5069334;28;20321;-56
2022/05/18 11:12:56;;;;;;;4.27;3.87;;;;;;;;;;5065705;28;20596;-57
2022/05/18 11:15:41;;;;;;;4.53;4.20;;;;;;;;;;5050007;28;20789;-56
2022/05/18 11:18:18;;;;;;;5.70;5.20;;;;;;;;;;5052978;28;20169;-56
2022/05/18 11:20:53;;;;;;;5.13;4.83;;;;;;;;;;5054645;28;20185;-56
2022/05/18 11:23:29;;;;;;;4.40;4.00;;;;;;;;;;5056006;28;20159;-56
2022/05/18 11:26:03;;;;;;;4.87;4.47;;;;;;;;;;5046527;28;20531;-56
2022/05/18 11:28:48;;;;;;;4.97;4.57;;;;;;;;;;5039318;28;20673;-56
2022/05/18 11:31:14;;;;;;;6.10;5.50;;;;;;;;;;5031817;28;20203;-56
2022/05/18 11:33:47;;;;;;;5.07;4.63;;;;;;;;;;5027958;28;20161;-56
2022/05/18 11:36:40;;;;;;;6.63;4.10;;;;;;;;;;5036545;28;20246;-56
2022/05/18 11:39:15;;;;;;;4.63;4.13;;;;;;;;;;5019236;28;20231;-56
2022/05/18 11:41:47;;;;;;;4.50;4.10;;;;;;;;;;5028360;28;20206;-56
2022/05/18 11:44:46;;;;;;;4.70;4.40;;;;;;;;;;5016598;28;20188;-55
2022/05/18 11:47:18;;;;;;;4.43;4.03;;;;;;;;;;4988220;28;20572;-55
2022/05/18 11:49:44;;;;;;;7.13;5.93;;;;;;;;;;5042493;28;20669;-55
2022/05/18 11:52:14;;;;;;;3.87;3.57;;;;;;;;;;5026307;28;20663;-55
2022/05/18 11:54:40;;;;;;;4.40;4.00;;;;;;;;;;5043412;28;20174;-58
2022/05/18 11:57:25;;;;;;;7.63;7.10;;;;;;;;;;5045793;28;20181;-56
2022/05/18 12:00:11;;;;;;;8.30;7.80;;;;;;;;;;5034355;28;20199;-56
2022/05/18 12:02:56;;;;;;;4.17;3.80;;;;;;;;;;5032748;28;20195;-58
2022/05/18 12:05:22;;;;;;;4.40;4.07;;;;;;;;;;5036190;28;20556;-56
2022/05/18 12:08:29;;;;;;;4.87;4.37;;;;;;;;;;5034759;28;20260;-56
2022/05/18 12:10:56;;;;;;;4.70;4.27;;;;;;;;;;4952654;28;20263;-56
2022/05/18 12:13:29;;;;;;;4.20;3.90;;;;;;;;;;4939546;28;20187;-56
2022/05/18 12:16:08;;;;;;;4.23;3.93;;;;;;;;;;4997726;28;20223;-56
2022/05/18 12:18:34;;;;;;;4.13;3.83;;;;;;;;;;5041075;28;20171;-56
2022/05/18 12:21:23;;;;;;;4.60;4.20;;;;;;;;;;5042853;28;20555;-56
2022/05/18 12:23:53;;;;;;;4.30;4.00;;;;;;;;;;5033989;28;20234;-56
2022/05/18 12:26:21;;;;;;;4.73;4.40;;;;;;;;;;5027058;28;20220;-56
2022/05/18 12:28:48;;;;;;;4.83;4.53;;;;;;;;;;5032353;28;20189;-56
2022/05/18 12:31:15;;;;;;;4.07;3.77;;;;;;;;;;5032530;28;20250;-56
2022/05/18 12:33:46;;;;;;;4.53;4.13;;;;;;;;;;5029762;28;20663;-56
2022/05/18 12:36:23;;;;;;;4.30;3.90;;;;;;;;;;5038276;28;20184;-56
2022/05/18 12:38:52;;;;;;;4.20;3.90;;;;;;;;;;5027911;28;20175;-55
2022/05/18 12:41:21;;;;;;;4.30;3.90;;;;;;;;;;5029759;28;20663;-56
2022/05/18 12:43:47;;;;;;;3.47;3.27;;;;;;;;;;5042287;28;20207;-56
2022/05/18 12:46:16;;;;;;;4.47;4.00;;;;;;;;;;5029484;28;20229;-57
2022/05/18 12:48:58;;;;;;;5.00;3.57;;;;;;;;;;5025296;28;20186;-56
2022/05/18 12:51:30;;;;;;;4.50;3.83;;;;;;;;;;5038425;28;20271;-56
2022/05/18 12:54:12;;;;;;;3.87;3.47;;;;;;;;;;5033665;28;20631;-56
2022/05/18 12:56:38;;;;;;;4.77;4.37;;;;;;;;;;5030788;28;20546;-56
2022/05/18 12:59:12;;;;;;;4.20;3.80;;;;;;;;;;5035055;28;20510;-57
2022/05/18 13:01:40;;;;;;;4.33;4.03;;;;;;;;;;5040223;28;20257;-56
2022/05/18 13:04:08;;;;;;;4.67;4.27;;;;;;;;;;5040368;28;20270;-56
2022/05/18 13:06:47;;;;;;;4.20;3.80;;;;;;;;;;5044851;28;20734;-56
2022/05/18 13:09:23;;;;;;;5.27;4.83;;;;;;;;;;5032191;28;20172;-57
2022/05/18 13:12:08;;;;;;;5.03;4.73;;;;;;;;;;5027001;28;20178;-56
2022/05/18 13:14:40;;;;;;;4.30;3.90;;;;;;;;;;5028529;28;20328;-55
2022/05/18 13:17:12;;;;;;;4.13;3.83;;;;;;;;;;5032334;28;20279;-55
2022/05/18 13:19:38;;;;;;;4.07;3.77;;;;;;;;;;5029836;28;20189;-56
2022/05/18 13:22:13;;;;;;;4.67;4.23;;;;;;;;;;5025708;28;21317;-57
2022/05/18 13:24:52;;;;;;;4.00;3.70;;;;;;;;;;5035252;28;20677;-56
2022/05/18 13:27:20;;;;;;;4.43;4.10;;;;;;;;;;5047396;28;20566;-56
2022/05/18 13:29:49;;;;;;;5.03;3.77;;;;;;;;;;5029194;28;20180;-56
2022/05/18 13:32:17;;;;;;;4.50;3.80;;;;;;;;;;5037988;28;20625;-56
2022/05/18 13:34:49;;;;;;;5.50;3.80;;;;;;;;;;5051798;28;20273;-57
2022/05/18 13:37:16;;;;;;;4.40;3.75;;;;;;;;;;5035454;28;20609;-57
2022/05/18 13:39:46;;;;;;;4.15;3.75;;;;;;;;;;5049915;28;20219;-56
2022/05/18 13:42:14;;;;;;;3.85;3.55;;;;;;;;;;5057270;28;20655;-56
2022/05/18 13:44:41;;;;;;;3.80;3.50;;;;;;;;;;5032063;28;20313;-56
2022/05/18 13:47:11;;;;;;;3.85;3.55;;;;;;;;;;5036542;28;20655;-56
2022/05/18 13:49:39;;;;;;;4.60;4.20;;;;;;;;;;5047274;28;20189;-56
2022/05/18 13:52:08;;;;;;;4.63;4.22;;;;;;;;;;5051935;28;20177;-56
2022/05/18 13:54:37;;;;;;;3.67;3.47;;;;;;;;;;5050832;28;20585;-56
2022/05/18 13:57:05;;;;;;;4.28;3.95;;;;;;;;;;5057542;28;20637;-57
2022/05/18 13:59:33;;;;;;;7.93;7.43;;;;;;;;;;5028730;28;20525;-57
2022/05/18 14:02:01;;;;;;;6.15;5.65;;;;;;;;;;5034332;28;20498;-58
2022/05/18 14:04:41;;;;;;;4.95;4.55;;;;;;;;;;5051314;28;20176;-58
2022/05/18 14:07:07;;;;;;;4.18;3.88;;;;;;;;;;5029840;28;20196;-57
2022/05/18 14:09:43;;;;;;;4.90;3.92;;;;;;;;;;5050066;28;20214;-59
2022/05/18 14:12:14;;;;;;;4.07;3.65;;;;;;;;;;5037705;28;20160;-58
2022/05/18 14:14:40;;;;;;;4.22;3.83;;;;;;;;;;5030046;28;20193;-58
2022/05/18 14:17:08;;;;;;;4.93;3.55;;;;;;;;;;5033591;28;20299;-56
2022/05/18 14:19:36;;;;;;;8.45;3.78;;;;;;;;;;5056925;28;20761;-58
2022/05/18 14:22:03;;;;;;;4.70;3.33;;;;;;;;;;5041292;28;20364;-58
2022/05/18 14:24:32;;;;;;;6.60;4.88;;;;;;;;;;5058164;28;20285;-57
2022/05/18 14:27:01;;;;;;;3.88;3.47;;;;;;;;;;5038700;28;20215;-58
2022/05/18 14:29:57;;;;;;;5.00;4.05;;;;;;;;;;5052674;28;20262;-57
2022/05/18 14:32:26;;;;;;;4.70;4.18;;;;;;;;;;5028807;28;20514;-58
2022/05/18 14:35:00;;;;;;;5.35;4.85;;;;;;;;;;5053016;28;20208;-57
2022/05/18 14:37:35;;;;;;;5.28;4.50;;;;;;;;;;5046053;28;20264;-57
2022/05/18 14:40:02;;;;;;;5.05;3.85;;;;;;;;;;5065858;28;20198;-57
2022/05/18 14:42:30;;;;;;;4.68;3.80;;;;;;;;;;5043829;28;20752;-55
2022/05/18 14:45:20;;;;;;;5.30;4.90;;;;;;;;;;5038335;28;20185;-55
2022/05/18 14:47:47;;;;;;;5.90;4.22;;;;;;;;;;5016086;28;20224;-56
2022/05/18 14:50:18;;;;;;;3.42;3.13;;;;;;;;;;5058724;28;20660;-55
2022/05/18 14:52:53;;;;;;;4.38;3.55;;;;;;;;;;5064662;28;20176;-56
2022/05/18 14:55:45;;;;;;;4.28;3.97;;;;;;;;;;5047359;28;20207;-57
2022/05/18 14:58:16;;;;;;;4.55;4.15;;;;;;;;;;5023250;28;20788;-56
2022/05/18 15:00:44;;;;;;;5.05;3.85;;;;;;;;;;5022084;28;20588;-56
2022/05/18 15:03:14;;;;;;;5.60;3.90;;;;;;;;;;5044621;28;20216;-56
2022/05/18 15:05:43;;;;;;;4.30;3.90;;;;;;;;;;5049103;28;20218;-55
2022/05/18 15:08:29;;;;;;;4.20;3.80;;;;;;;;;;5034727;28;20187;-55
2022/05/18 15:10:59;;;;;;;4.30;3.55;;;;;;;;;;5052845;28;20566;-56
2022/05/18 15:13:29;;;;;;;4.43;3.92;;;;;;;;;;5036403;28;20190;-57
2022/05/18 15:16:06;;;;;;;4.38;4.07;;;;;;;;;;5034053;28;20211;-56